Time;durP1;ratioP1;P1;durP2;ratioP2;P2;SDS_P1;SDS_P2;PMS_P1;PMS_P2;Temp;Humidity;BMP_temperature;BMP_pressure;BME280_temperature;BME280_humidity;BME280_pressure;Samples;Min_cycle;Max_cycle;Signal;HPM_P1;HPM_P2
2022/09/06 00:02:46;;;;;;;13.10;12.23;;;;;;;16.91;100.00;100391.50;10583998;28;20046;-73
2022/09/06 00:07:47;;;;;;;13.38;12.55;;;;;;;16.76;100.00;100392.28;10583482;28;20043;-72
2022/09/06 00:12:49;;;;;;;14.38;13.48;;;;;;;16.67;100.00;100375.00;10583446;28;20051;-72
2022/09/06 00:17:51;;;;;;;13.88;13.07;;;;;;;16.59;100.00;100378.03;10584800;28;20089;-71
2022/09/06 00:23:04;;;;;;;13.43;12.63;;;;;;;16.67;100.00;100380.31;10564874;28;20374;-72
2022/09/06 00:28:06;;;;;;;13.52;12.70;;;;;;;16.62;100.00;100382.34;10564427;28;20051;-72
2022/09/06 00:33:07;;;;;;;13.70;12.90;;;;;;;16.60;100.00;100373.56;10583014;28;20497;-72
2022/09/06 00:38:09;;;;;;;13.60;12.68;;;;;;;16.67;100.00;100374.13;10565000;28;20411;-72
2022/09/06 00:43:11;;;;;;;14.52;13.40;;;;;;;16.52;100.00;100371.34;10583867;28;20154;-72
2022/09/06 00:48:14;;;;;;;14.02;13.23;;;;;;;16.55;100.00;100368.50;10565506;28;20044;-73
2022/09/06 00:53:17;;;;;;;13.93;12.95;;;;;;;16.45;100.00;100369.06;10591398;28;20127;-71
2022/09/06 00:58:20;;;;;;;13.85;12.95;;;;;;;16.56;100.00;100377.34;10590623;28;20066;-72
2022/09/06 01:03:24;;;;;;;13.85;12.95;;;;;;;16.55;100.00;100373.81;10590904;28;20044;-72
2022/09/06 01:08:51;;;;;;;13.43;12.63;;;;;;;16.49;100.00;100371.50;10590203;28;20039;-72
2022/09/06 01:14:06;;;;;;;12.23;11.52;;;;;;;16.38;100.00;100364.09;10591487;28;20048;-73
2022/09/06 01:19:45;;;;;;;12.98;11.73;;;;;;;16.33;100.00;100365.22;10586025;28;20040;-72
2022/09/06 01:25:21;;;;;;;12.35;11.38;;;;;;;16.20;100.00;100358.81;10587751;28;20093;-72
2022/09/06 01:30:23;;;;;;;12.00;11.30;;;;;;;16.23;100.00;100356.88;10589366;28;20047;-73
2022/09/06 01:35:29;;;;;;;12.73;11.73;;;;;;;16.12;100.00;100365.38;10577685;28;20108;-72
2022/09/06 01:40:35;;;;;;;12.38;11.45;;;;;;;15.96;100.00;100355.59;10574996;28;20042;-71
2022/09/06 01:46:06;;;;;;;12.38;11.40;;;;;;;15.87;100.00;100344.50;10575910;28;20074;-71
2022/09/06 01:51:16;;;;;;;11.63;10.88;;;;;;;15.77;100.00;100353.00;10592542;28;20047;-73
2022/09/06 01:56:30;;;;;;;11.95;11.23;;;;;;;15.95;100.00;100365.34;10555227;28;20113;-72
2022/09/06 02:01:44;;;;;;;9.90;9.32;;;;;;;15.90;100.00;100370.03;10588392;28;20040;-72
2022/09/06 02:06:51;;;;;;;11.70;11.02;;;;;;;15.99;100.00;100366.91;10574947;28;20484;-73
2022/09/06 02:12:03;;;;;;;10.60;9.98;;;;;;;16.04;100.00;100362.25;10590719;28;20548;-71
2022/09/06 02:17:07;;;;;;;11.70;11.00;;;;;;;15.88;100.00;100363.91;10571956;28;20055;-72
2022/09/06 02:22:14;;;;;;;11.27;10.68;;;;;;;15.83;100.00;100372.09;10590229;28;20165;-72
2022/09/06 02:27:16;;;;;;;10.20;9.63;;;;;;;15.68;100.00;100369.34;10590668;28;20035;-72
2022/09/06 02:32:21;;;;;;;10.68;10.05;;;;;;;15.61;100.00;100369.56;10588547;28;20055;-73
2022/09/06 02:37:26;;;;;;;10.38;9.63;;;;;;;15.86;100.00;100364.00;10571111;28;20442;-72
2022/09/06 02:42:28;;;;;;;9.80;9.20;;;;;;;15.85;100.00;100364.09;10587799;28;20039;-73
2022/09/06 02:47:30;;;;;;;10.25;9.70;;;;;;;15.91;99.48;100362.91;10588414;28;20040;-72
2022/09/06 02:52:32;;;;;;;10.23;9.63;;;;;;;15.66;99.84;100365.88;10570472;28;20085;-72
2022/09/06 02:57:34;;;;;;;10.00;9.30;;;;;;;15.53;100.00;100358.47;10596242;28;20047;-71
2022/09/06 03:02:36;;;;;;;10.77;10.07;;;;;;;15.63;100.00;100365.06;10560999;28;20062;-73
2022/09/06 03:07:39;;;;;;;10.35;9.65;;;;;;;15.48;99.83;100360.47;10569781;28;20596;-73
2022/09/06 03:12:45;;;;;;;10.23;9.70;;;;;;;15.37;100.00;100354.84;10573624;28;20113;-71
2022/09/06 03:17:47;;;;;;;10.43;9.82;;;;;;;15.34;100.00;100345.22;10577536;28;20550;-71
2022/09/06 03:22:50;;;;;;;9.43;8.80;;;;;;;15.32;100.00;100349.75;10591014;28;20068;-72
2022/09/06 03:27:52;;;;;;;10.55;9.70;;;;;;;15.32;100.00;100340.97;10570399;28;20055;-72
2022/09/06 03:32:53;;;;;;;9.55;8.95;;;;;;;15.27;100.00;100345.56;10567212;28;20054;-72
2022/09/06 03:37:55;;;;;;;9.73;9.13;;;;;;;15.25;100.00;100347.44;10584903;28;20409;-72
2022/09/06 03:42:57;;;;;;;11.65;10.95;;;;;;;15.22;100.00;100343.13;10585231;28;20040;-72
2022/09/06 03:47:58;;;;;;;10.70;9.93;;;;;;;15.16;100.00;100342.59;10566078;28;20078;-71
2022/09/06 03:53:00;;;;;;;9.38;8.70;;;;;;;15.25;100.00;100342.16;10583202;28;20415;-71
2022/09/06 03:58:02;;;;;;;9.52;8.93;;;;;;;15.35;99.48;100341.66;10564829;28;20040;-72
2022/09/06 04:03:03;;;;;;;10.23;9.23;;;;;;;15.22;99.15;100332.56;10584759;28;20093;-72
2022/09/06 04:08:05;;;;;;;9.45;8.95;;;;;;;15.13;100.00;100335.63;10583146;28;20054;-72
2022/09/06 04:13:07;;;;;;;9.13;8.52;;;;;;;15.15;99.62;100331.13;10583156;28;20035;-71
2022/09/06 04:18:08;;;;;;;9.55;8.95;;;;;;;15.08;100.00;100333.19;10582889;28;20040;-72
2022/09/06 04:23:10;;;;;;;9.10;8.38;;;;;;;15.14;99.90;100326.78;10582141;28;20051;-72
2022/09/06 04:28:12;;;;;;;9.52;8.95;;;;;;;15.29;100.00;100317.25;10582328;28;20097;-72
2022/09/06 04:33:14;;;;;;;9.98;9.30;;;;;;;15.72;95.84;100317.91;10582270;28;20043;-71
2022/09/06 04:38:15;;;;;;;10.32;9.63;;;;;;;15.70;94.83;100312.66;10563810;28;20130;-72
2022/09/06 04:43:17;;;;;;;9.98;9.10;;;;;;;15.52;96.56;100298.47;10583210;28;20040;-72
2022/09/06 04:48:19;;;;;;;9.88;9.27;;;;;;;15.52;97.09;100295.81;10582258;28;20498;-72
2022/09/06 04:53:20;;;;;;;10.20;8.93;;;;;;;15.57;96.54;100304.41;10582258;28;20105;-72
2022/09/06 04:58:22;;;;;;;8.52;7.80;;;;;;;15.64;96.53;100302.38;10582930;28;20036;-72
2022/09/06 05:03:24;;;;;;;9.55;8.82;;;;;;;15.97;93.66;100307.78;10582784;28;20071;-72
2022/09/06 05:08:25;;;;;;;9.50;8.82;;;;;;;15.94;93.97;100305.31;10581231;28;20063;-72
2022/09/06 05:13:27;;;;;;;11.93;8.75;;;;;;;16.17;91.97;100313.91;10581456;28;20051;-72
2022/09/06 05:18:29;;;;;;;8.35;7.72;;;;;;;16.31;90.56;100306.09;10581296;28;20139;-72
2022/09/06 05:23:31;;;;;;;8.13;6.28;;;;;;;16.59;87.86;100301.06;10581940;28;20055;-72
2022/09/06 05:28:33;;;;;;;8.00;7.30;;;;;;;16.73;86.36;100308.34;10582306;28;20047;-72
2022/09/06 05:33:36;;;;;;;7.85;7.13;;;;;;;16.80;86.12;100301.78;10581147;28;20044;-72
2022/09/06 05:38:37;;;;;;;7.57;6.90;;;;;;;16.94;84.28;100303.69;10587121;28;20036;-75
2022/09/06 05:43:39;;;;;;;7.80;7.03;;;;;;;17.10;83.42;100301.94;10588587;28;20165;-75
2022/09/06 05:48:41;;;;;;;7.05;6.45;;;;;;;17.26;81.84;100307.25;10588853;28;20043;-74
2022/09/06 05:53:44;;;;;;;7.50;6.70;;;;;;;17.17;82.88;100302.44;10588533;28;20556;-76
2022/09/06 05:58:46;;;;;;;8.40;7.45;;;;;;;17.28;82.66;100305.38;10587625;28;20043;-76
2022/09/06 06:04:02;;;;;;;6.85;6.35;;;;;;;17.62;80.80;100306.16;10588005;28;20058;-74
2022/09/06 06:09:04;;;;;;;;;;;;;;;17.72;78.69;100302.03;10588141;28;20039;-75
2022/09/06 06:14:05;;;;;;;7.40;6.90;;;;;;;17.54;79.91;100298.59;10587946;28;20324;-75
2022/09/06 06:19:07;;;;;;;7.68;6.97;;;;;;;17.66;79.59;100283.75;10588411;28;20042;-74
2022/09/06 06:24:09;;;;;;;7.20;6.57;;;;;;;17.76;78.81;100292.09;10587946;28;20412;-76
2022/09/06 06:29:10;;;;;;;7.47;6.65;;;;;;;17.70;80.69;100285.28;10568927;28;20036;-75
2022/09/06 06:34:12;;;;;;;7.20;6.47;;;;;;;17.87;79.77;100287.00;10586836;28;20063;-76
2022/09/06 06:39:14;;;;;;;6.95;6.40;;;;;;;17.98;77.69;100287.25;10586661;28;20374;-75
2022/09/06 06:44:15;;;;;;;7.25;6.25;;;;;;;17.92;79.33;100297.38;10585944;28;20048;-75
2022/09/06 06:49:17;;;;;;;5.90;5.50;;;;;;;18.39;77.57;100302.56;10585614;28;20094;-75
2022/09/06 06:54:19;;;;;;;7.70;5.93;;;;;;;18.59;73.82;100302.25;10585518;28;20044;-73
2022/09/06 06:59:20;;;;;;;8.93;6.60;;;;;;;18.57;74.95;100298.78;10585457;28;20046;-74
2022/09/06 07:04:22;;;;;;;6.22;5.65;;;;;;;18.74;73.19;100294.28;10586394;28;20118;-74
2022/09/06 07:09:24;;;;;;;6.55;5.20;;;;;;;18.78;72.13;100290.50;10586296;28;20358;-73
2022/09/06 07:14:26;;;;;;;8.23;5.65;;;;;;;18.51;73.89;100293.00;10566538;28;20519;-73
2022/09/06 07:19:28;;;;;;;5.60;5.20;;;;;;;18.86;73.94;100299.72;10584488;28;20039;-73
2022/09/06 07:24:50;;;;;;;6.50;6.00;;;;;;;19.14;71.66;100301.50;10585090;28;20044;-73
2022/09/06 07:29:52;;;;;;;5.22;4.82;;;;;;;19.42;70.52;100292.59;10584810;28;20067;-74
2022/09/06 07:34:53;;;;;;;5.00;4.65;;;;;;;19.37;71.64;100293.84;10566479;28;20040;-74
2022/09/06 07:39:55;;;;;;;4.97;4.20;;;;;;;19.47;71.07;100286.13;10583813;28;20043;-73
2022/09/06 07:44:57;;;;;;;5.15;4.75;;;;;;;19.49;69.86;100297.56;10583864;28;20047;-73
2022/09/06 07:49:58;;;;;;;5.25;4.75;;;;;;;19.58;69.87;100305.81;10584641;28;20044;-73
2022/09/06 07:55:20;;;;;;;9.60;4.90;;;;;;;19.46;71.20;100298.59;10568864;28;20055;-73
2022/09/06 08:00:21;;;;;;;4.80;4.50;;;;;;;19.45;71.50;100296.88;10583480;28;20350;-73
2022/09/06 08:05:23;;;;;;;7.18;5.15;;;;;;;19.59;72.54;100302.19;10583565;28;20039;-73
2022/09/06 08:10:49;;;;;;;4.75;4.35;;;;;;;20.03;68.21;100301.09;10565310;28;20038;-73
2022/09/06 08:15:59;;;;;;;4.82;4.30;;;;;;;20.26;66.57;100304.03;10558005;28;20040;-74
2022/09/06 08:21:14;;;;;;;4.47;4.07;;;;;;;20.40;66.29;100307.47;10543797;28;20040;-72
2022/09/06 08:26:19;;;;;;;7.47;4.70;;;;;;;20.41;67.91;100314.53;10544140;28;20127;-72
2022/09/06 08:31:21;;;;;;;9.88;4.38;;;;;;;20.75;66.31;100309.56;10549533;28;20043;-73
2022/09/06 08:36:28;;;;;;;5.90;4.32;;;;;;;21.00;63.64;100305.19;10567778;28;20043;-72
2022/09/06 08:41:55;;;;;;;5.00;4.50;;;;;;;21.03;63.65;100300.47;10586748;28;20481;-73
2022/09/06 08:47:10;;;;;;;4.20;3.90;;;;;;;21.30;63.24;100292.28;10561918;28;20148;-73
2022/09/06 08:52:24;;;;;;;4.30;3.90;;;;;;;21.50;62.13;100290.84;10559127;28;20044;-72
2022/09/06 08:57:31;;;;;;;6.18;4.45;;;;;;;21.70;62.78;100284.06;10548046;28;20043;-74
2022/09/06 09:02:50;;;;;;;14.18;4.35;;;;;;;22.08;60.10;100273.13;10581859;28;20097;-73
2022/09/06 09:07:59;;;;;;;19.63;5.72;;;;;;;22.39;59.94;100269.00;10539416;28;20119;-73
2022/09/06 09:13:06;;;;;;;5.07;4.03;;;;;;;22.58;58.12;100257.72;10546592;28;20524;-73
2022/09/06 09:18:07;;;;;;;6.85;4.30;;;;;;;22.93;57.43;100259.44;10547055;28;20093;-73
2022/09/06 09:23:09;;;;;;;9.65;4.00;;;;;;;23.20;56.72;100250.16;10548257;28;20093;-73
2022/09/06 09:28:23;;;;;;;4.10;3.80;;;;;;;23.15;56.25;100254.09;10546905;28;20459;-73
2022/09/06 09:33:32;;;;;;;5.00;3.75;;;;;;;23.08;55.30;100244.84;10547624;28;20044;-72
2022/09/06 09:38:43;;;;;;;4.97;4.53;;;;;;;22.85;56.04;100243.97;10546794;28;20105;-72
2022/09/06 09:43:56;;;;;;;4.25;3.85;;;;;;;22.72;56.13;100227.16;10528336;28;20046;-72
2022/09/06 09:49:28;;;;;;;4.53;3.80;;;;;;;23.20;54.48;100217.97;10546539;28;20051;-73
2022/09/06 09:54:34;;;;;;;4.47;4.07;;;;;;;23.47;55.27;100222.94;10550328;28;20039;-74
2022/09/06 09:59:36;;;;;;;6.05;3.90;;;;;;;23.61;53.02;100214.59;10590191;28;20054;-74
2022/09/06 10:04:45;;;;;;;5.97;3.95;;;;;;;23.72;54.36;100211.03;10553979;28;20048;-73
2022/09/06 10:09:55;;;;;;;5.43;3.95;;;;;;;23.94;52.58;100213.59;10589032;28;20078;-73
2022/09/06 10:14:58;;;;;;;5.22;3.88;;;;;;;23.94;52.04;100205.56;10588130;28;20043;-72
2022/09/06 10:20:10;;;;;;;5.03;3.55;;;;;;;23.97;52.75;100201.78;10588052;28;20036;-73
2022/09/06 10:25:47;;;;;;;4.53;3.67;;;;;;;23.93;52.26;100201.16;10587533;28;20048;-73
2022/09/06 10:31:04;;;;;;;3.60;3.30;;;;;;;23.82;52.62;100191.34;10533726;28;20083;-73
2022/09/06 10:36:06;;;;;;;;;;;;;;;24.38;50.75;100190.16;10569787;28;20509;-72
2022/09/06 10:41:45;;;;;;;3.55;3.25;;;;;;;24.35;51.50;100191.28;10588285;28;19919;-73
2022/09/06 10:46:54;;;;;;;3.63;3.33;;;;;;;24.03;52.14;100182.44;10569953;28;20058;-73
2022/09/06 10:52:01;;;;;;;4.85;3.72;;;;;;;24.40;52.36;100191.75;10587471;28;20047;-72
2022/09/06 10:57:17;;;;;;;4.95;3.33;;;;;;;24.51;50.83;100171.16;10586218;28;20536;-71
2022/09/06 11:03:00;;;;;;;4.20;3.08;;;;;;;25.38;48.91;100176.81;10568917;28;20043;-72
2022/09/06 11:08:45;;;;;;;3.60;3.30;;;;;;;25.77;47.89;100164.22;10570986;28;20042;-71
2022/09/06 11:13:48;;;;;;;4.75;3.00;;;;;;;25.95;45.89;100168.88;10575533;28;20052;-71
2022/09/06 11:19:00;;;;;;;4.35;3.35;;;;;;;24.97;48.60;100157.16;10585355;28;20408;-72
2022/09/06 11:24:21;;;;;;;3.20;3.00;;;;;;;24.89;48.89;100151.63;10586603;28;20051;-72
2022/09/06 11:29:25;;;;;;;3.40;3.10;;;;;;;25.73;47.15;100153.84;10586581;28;20039;-72
2022/09/06 11:34:31;;;;;;;7.40;3.38;;;;;;;25.98;46.90;100152.41;10584962;28;20047;-72
2022/09/06 11:39:36;;;;;;;4.75;3.30;;;;;;;25.91;46.75;100144.91;10568161;28;20392;-72
2022/09/06 11:44:58;;;;;;;8.55;2.70;;;;;;;26.32;45.63;100141.97;10583769;28;20101;-72
2022/09/06 11:50:20;;;;;;;3.45;3.15;;;;;;;26.55;46.06;100134.38;10584136;28;20047;-71
2022/09/06 11:55:37;;;;;;;3.92;2.75;;;;;;;25.89;46.28;100136.13;10584186;28;20126;-72
2022/09/06 12:00:39;;;;;;;3.40;2.65;;;;;;;25.79;47.02;100129.06;10584151;28;20039;-72
2022/09/06 12:06:14;;;;;;;3.75;3.45;;;;;;;26.30;46.38;100125.13;10584206;28;20044;-71
2022/09/06 12:11:26;;;;;;;4.35;3.20;;;;;;;26.55;47.42;100113.66;10558617;28;20118;-72
2022/09/06 12:16:55;;;;;;;3.28;2.80;;;;;;;26.88;45.46;100096.03;10583165;28;20075;-72
2022/09/06 12:21:57;;;;;;;3.20;2.90;;;;;;;26.48;45.04;100104.50;10565342;28;20036;-71
2022/09/06 12:27:11;;;;;;;3.22;2.92;;;;;;;26.48;46.82;100109.03;10582317;28;20079;-72
2022/09/06 12:32:19;;;;;;;3.00;2.67;;;;;;;26.63;45.76;100094.06;10581916;28;20096;-72
2022/09/06 12:37:49;;;;;;;2.53;2.33;;;;;;;26.37;45.95;100083.94;10581623;28;20048;-71
2022/09/06 12:42:51;;;;;;;3.22;2.80;;;;;;;26.05;47.33;100076.28;10556634;28;20048;-72
2022/09/06 12:48:08;;;;;;;3.90;2.92;;;;;;;25.77;46.59;100086.13;10547037;28;20040;-72
2022/09/06 12:53:24;;;;;;;3.95;2.55;;;;;;;25.84;46.27;100083.69;10547939;28;20051;-72
2022/09/06 12:58:29;;;;;;;3.65;2.58;;;;;;;25.73;46.64;100081.16;10548003;28;20074;-72
2022/09/06 13:03:42;;;;;;;2.50;2.23;;;;;;;25.55;47.09;100081.91;10548506;28;20052;-73
2022/09/06 13:08:55;;;;;;;3.63;2.20;;;;;;;25.53;47.19;100089.25;10548209;28;20033;-72
2022/09/06 13:13:58;;;;;;;2.85;2.28;;;;;;;25.20;48.67;100084.31;10528904;28;20044;-72
2022/09/06 13:19:14;;;;;;;3.92;2.50;;;;;;;24.99;48.80;100082.56;10546788;28;20046;-72
2022/09/06 13:24:20;;;;;;;3.85;2.35;;;;;;;24.75;49.40;100098.25;10547355;28;20058;-72
2022/09/06 13:29:22;;;;;;;;;;;;;;;24.27;51.03;100179.50;10528908;28;20078;-72
2022/09/06 13:34:27;;;;;;;4.10;1.33;;;;;;;22.65;56.78;100169.66;10527764;28;19919;-71
2022/09/06 13:39:38;;;;;;;2.80;1.05;;;;;;;21.00;66.08;100185.75;10546183;28;20525;-73
2022/09/06 13:44:39;;;;;;;7.95;2.00;;;;;;;20.09;76.39;100209.94;10546611;28;20040;-71
2022/09/06 13:49:41;;;;;;;10.30;4.70;;;;;;;19.26;88.56;100211.09;10538107;28;20369;-70
2022/09/06 13:54:43;;;;;;;4.18;3.25;;;;;;;18.94;94.17;100206.00;10566371;28;20073;-69
2022/09/06 13:59:45;;;;;;;4.72;4.20;;;;;;;18.74;97.21;100211.75;10572713;28;20035;-69
2022/09/06 14:04:46;;;;;;;4.72;4.32;;;;;;;18.79;100.00;100209.63;10573923;28;20048;-70
2022/09/06 14:09:50;;;;;;;5.85;5.30;;;;;;;18.74;100.00;100201.94;10593664;28;20043;-70
2022/09/06 14:14:54;;;;;;;7.50;6.80;;;;;;;18.90;100.00;100191.16;10587615;28;20047;-70
2022/09/06 14:19:57;;;;;;;7.05;6.32;;;;;;;19.02;100.00;100190.38;10576604;28;20089;-72
2022/09/06 14:24:59;;;;;;;7.10;6.60;;;;;;;19.13;100.00;100184.38;10560576;28;20051;-71
2022/09/06 14:30:01;;;;;;;6.22;5.93;;;;;;;19.24;100.00;100183.66;10551602;28;20071;-71
2022/09/06 14:35:04;;;;;;;9.18;6.97;;;;;;;19.24;100.00;100184.50;10592450;28;20074;-70
2022/09/06 14:40:09;;;;;;;7.15;6.50;;;;;;;19.19;100.00;100175.13;10594559;28;20122;-71
2022/09/06 14:45:11;;;;;;;6.80;4.45;;;;;;;19.37;97.08;100173.91;10593375;28;20047;-71
2022/09/06 14:50:13;;;;;;;5.25;4.95;;;;;;;19.46;100.00;100161.78;10591274;28;20046;-72
2022/09/06 14:55:15;;;;;;;4.78;4.47;;;;;;;19.52;100.00;100156.03;10591482;28;20047;-70
2022/09/06 15:00:17;;;;;;;7.03;6.45;;;;;;;19.41;100.00;100135.44;10590924;28;20109;-71
2022/09/06 15:05:19;;;;;;;6.57;6.07;;;;;;;19.39;100.00;100134.69;10589750;28;20157;-71
2022/09/06 15:10:21;;;;;;;5.28;4.88;;;;;;;19.34;100.00;100131.44;10589562;28;20039;-72
2022/09/06 15:15:23;;;;;;;5.88;5.22;;;;;;;19.31;100.00;100129.00;10569737;28;20049;-71
2022/09/06 15:20:25;;;;;;;4.18;3.78;;;;;;;19.48;96.64;100114.53;10588102;28;20091;-71
2022/09/06 15:25:27;;;;;;;3.40;3.20;;;;;;;19.44;94.97;100113.91;10586985;28;20048;-71
2022/09/06 15:30:29;;;;;;;5.82;5.43;;;;;;;19.30;100.00;100098.84;10590018;28;20051;-71
2022/09/06 15:35:32;;;;;;;5.50;5.15;;;;;;;19.08;100.00;100088.75;10586106;28;20050;-71
2022/09/06 15:40:34;;;;;;;5.35;5.03;;;;;;;19.21;100.00;100093.25;10570973;28;20043;-72
2022/09/06 15:45:48;;;;;;;5.63;5.22;;;;;;;19.09;100.00;100090.47;10588862;28;20047;-70
2022/09/06 15:50:50;;;;;;;6.80;6.40;;;;;;;19.32;100.00;100086.25;10571058;28;20054;-71
2022/09/06 15:55:57;;;;;;;8.77;7.97;;;;;;;19.16;100.00;100085.56;10587619;28;20107;-71
2022/09/06 16:01:05;;;;;;;7.05;6.55;;;;;;;19.08;100.00;100094.09;10589392;28;20043;-71
2022/09/06 16:06:10;;;;;;;10.20;9.40;;;;;;;19.31;100.00;100105.03;10593482;28;20043;-71
2022/09/06 16:11:31;;;;;;;9.63;8.93;;;;;;;19.38;100.00;100100.97;10595362;28;20035;-71
2022/09/06 16:16:34;;;;;;;10.27;9.68;;;;;;;19.31;100.00;100105.03;10576780;28;20039;-72
2022/09/06 16:21:38;;;;;;;10.13;9.32;;;;;;;19.40;100.00;100109.75;10554353;28;20047;-70
2022/09/06 16:26:44;;;;;;;11.50;10.80;;;;;;;19.39;100.00;100103.56;10593141;28;20035;-71
2022/09/06 16:31:47;;;;;;;12.75;11.88;;;;;;;19.35;100.00;100099.38;10592518;28;20043;-70
2022/09/06 16:36:49;;;;;;;12.10;11.32;;;;;;;19.34;100.00;100095.00;10591557;28;20048;-71
2022/09/06 16:41:51;;;;;;;11.68;11.07;;;;;;;19.40;100.00;100088.41;10585965;28;20127;-71
2022/09/06 16:46:55;;;;;;;14.45;13.55;;;;;;;19.07;100.00;100087.03;10567594;28;20105;-72
2022/09/06 16:51:57;;;;;;;13.45;12.52;;;;;;;18.98;100.00;100084.13;10590083;28;20039;-71
2022/09/06 16:57:00;;;;;;;13.88;13.18;;;;;;;19.00;100.00;100083.06;10569345;28;20067;-71
2022/09/06 17:02:02;;;;;;;13.10;12.40;;;;;;;19.24;100.00;100077.06;10585563;28;20055;-71
2022/09/06 17:07:04;;;;;;;14.23;13.32;;;;;;;19.21;100.00;100082.59;10585117;28;20497;-72
2022/09/06 17:12:06;;;;;;;12.50;11.70;;;;;;;19.44;100.00;100079.25;10584848;28;20032;-72
2022/09/06 17:17:08;;;;;;;13.70;12.90;;;;;;;19.15;100.00;100073.19;10583374;28;20078;-71
2022/09/06 17:22:11;;;;;;;13.68;12.80;;;;;;;18.99;100.00;100073.38;10582132;28;20066;-71
2022/09/06 17:27:13;;;;;;;14.20;13.38;;;;;;;18.92;100.00;100072.06;10565587;28;20082;-72
2022/09/06 17:32:15;;;;;;;15.18;14.27;;;;;;;19.03;100.00;100069.53;10586054;28;20040;-72
2022/09/06 17:37:17;;;;;;;15.45;14.63;;;;;;;18.94;100.00;100064.81;10589667;28;20088;-72
2022/09/06 17:42:18;;;;;;;17.67;16.63;;;;;;;18.72;100.00;100077.81;10590622;28;20032;-71
2022/09/06 17:47:20;;;;;;;16.65;15.73;;;;;;;18.61;100.00;100076.69;10589551;28;20043;-71
2022/09/06 17:52:22;;;;;;;17.20;16.30;;;;;;;18.71;100.00;100082.31;10589082;28;20044;-71
2022/09/06 17:57:24;;;;;;;18.35;17.35;;;;;;;18.70;100.00;100091.25;10589938;28;20063;-71
2022/09/06 18:02:26;;;;;;;17.67;16.67;;;;;;;18.53;100.00;100086.97;10590301;28;20035;-72
2022/09/06 18:07:28;;;;;;;18.17;17.13;;;;;;;18.45;100.00;100085.75;10589670;28;20047;-72
2022/09/06 18:12:30;;;;;;;16.17;15.27;;;;;;;18.45;100.00;100101.72;10592001;28;20457;-72
2022/09/06 18:17:32;;;;;;;16.92;16.02;;;;;;;18.43;100.00;100100.97;10589946;28;20390;-71
2022/09/06 18:22:36;;;;;;;17.15;16.25;;;;;;;18.39;100.00;100098.50;10570394;28;20096;-72
2022/09/06 18:27:39;;;;;;;20.17;18.70;;;;;;;18.54;100.00;100099.31;10588061;28;20505;-71
2022/09/06 18:32:41;;;;;;;21.70;20.45;;;;;;;18.41;100.00;100093.91;10588940;28;20035;-72
2022/09/06 18:37:42;;;;;;;19.38;18.33;;;;;;;18.20;100.00;100084.66;10588859;28;20048;-72
2022/09/06 18:42:44;;;;;;;20.77;19.33;;;;;;;18.09;100.00;100079.97;10586170;28;20039;-71
2022/09/06 18:47:46;;;;;;;22.10;20.90;;;;;;;18.18;100.00;100067.91;10585687;28;20043;-71
2022/09/06 18:52:49;;;;;;;19.33;18.30;;;;;;;18.07;100.00;100073.91;10586959;28;20040;-73
2022/09/06 18:57:50;;;;;;;22.40;21.20;;;;;;;18.12;100.00;100068.31;10568045;28;20481;-72
2022/09/06 19:02:52;;;;;;;21.30;20.15;;;;;;;18.19;100.00;100079.41;10551029;28;20051;-72
2022/09/06 19:07:54;;;;;;;22.20;20.83;;;;;;;18.10;100.00;100078.16;10586844;28;20573;-72
2022/09/06 19:12:56;;;;;;;19.90;18.58;;;;;;;17.84;100.00;100079.78;10587363;28;20416;-71
2022/09/06 19:18:01;;;;;;;20.52;19.42;;;;;;;17.63;100.00;100082.75;10585764;28;20044;-72
2022/09/06 19:23:03;;;;;;;21.77;20.58;;;;;;;17.56;100.00;100081.41;10586271;28;20044;-71
2022/09/06 19:28:05;;;;;;;22.15;20.85;;;;;;;17.57;100.00;100075.16;10584974;28;20039;-72
2022/09/06 19:33:07;;;;;;;24.30;23.02;;;;;;;17.57;100.00;100080.47;10586125;28;20449;-71
2022/09/06 19:38:09;;;;;;;23.70;22.30;;;;;;;17.46;100.00;100092.69;10566402;28;20058;-72
2022/09/06 19:43:11;;;;;;;24.20;22.80;;;;;;;17.38;100.00;100086.03;10585014;28;20445;-71
2022/09/06 19:48:12;;;;;;;25.30;23.65;;;;;;;17.28;100.00;100076.03;10585203;28;20051;-71
2022/09/06 19:53:14;;;;;;;24.38;22.98;;;;;;;17.22;100.00;100066.63;10583893;28;20040;-73
2022/09/06 19:58:16;;;;;;;23.20;21.92;;;;;;;17.08;100.00;100062.09;10565419;28;20078;-72
2022/09/06 20:03:18;;;;;;;23.08;21.88;;;;;;;16.96;100.00;100062.84;10583673;28;20427;-72
2022/09/06 20:08:20;;;;;;;24.75;23.15;;;;;;;17.24;100.00;100062.06;10583782;28;20412;-72
2022/09/06 20:13:22;;;;;;;22.63;20.98;;;;;;;17.36;100.00;100049.88;10583384;28;20398;-72
2022/09/06 20:18:24;;;;;;;20.85;19.70;;;;;;;17.14;100.00;100040.50;10583076;28;20458;-72
2022/09/06 20:23:27;;;;;;;19.65;18.55;;;;;;;17.06;100.00;100045.41;10583564;28;20075;-71
2022/09/06 20:28:29;;;;;;;23.25;22.05;;;;;;;17.44;100.00;100046.75;10582857;28;20058;-72
2022/09/06 20:33:32;;;;;;;23.35;21.85;;;;;;;17.20;100.00;100038.44;10564434;28;20413;-71
2022/09/06 20:38:37;;;;;;;23.92;22.33;;;;;;;17.14;100.00;100037.88;10564053;28;20048;-72
2022/09/06 20:43:40;;;;;;;20.63;19.52;;;;;;;16.94;100.00;100029.34;10582818;28;20044;-72
2022/09/06 20:48:43;;;;;;;23.45;22.08;;;;;;;16.96;100.00;100028.31;10582957;28;20050;-72
2022/09/06 20:53:52;;;;;;;22.20;20.90;;;;;;;16.88;100.00;100017.28;10564396;28;20040;-70
2022/09/06 20:58:58;;;;;;;23.30;21.98;;;;;;;16.76;100.00;100013.53;10564718;28;20059;-72
2022/09/06 21:04:01;;;;;;;23.23;21.70;;;;;;;16.72;100.00;100009.34;10563443;28;20039;-72
2022/09/06 21:09:05;;;;;;;19.63;18.63;;;;;;;16.50;100.00;99990.25;10589374;28;20521;-71
2022/09/06 21:14:08;;;;;;;22.48;21.10;;;;;;;16.62;100.00;99986.91;10591301;28;20043;-72
2022/09/06 21:19:10;;;;;;;24.35;22.85;;;;;;;16.91;100.00;100001.19;10590417;28;20516;-72
2022/09/06 21:24:12;;;;;;;20.92;19.83;;;;;;;16.54;100.00;99987.34;10590429;28;20044;-72
2022/09/06 21:29:14;;;;;;;24.35;22.90;;;;;;;16.35;100.00;99981.38;10590294;28;20035;-72
2022/09/06 21:34:16;;;;;;;21.92;20.42;;;;;;;16.31;100.00;99972.72;10589531;28;20516;-72
2022/09/06 21:39:17;;;;;;;23.73;22.35;;;;;;;16.21;100.00;99982.16;10589883;28;20050;-71
2022/09/06 21:44:19;;;;;;;25.80;24.35;;;;;;;16.12;100.00;99980.00;10589223;28;20111;-72
2022/09/06 21:49:21;;;;;;;23.20;22.00;;;;;;;16.11;100.00;99976.50;10588593;28;20130;-71
2022/09/06 21:54:23;;;;;;;24.42;23.13;;;;;;;16.11;100.00;99973.84;10553334;28;20095;-71
2022/09/06 21:59:24;;;;;;;29.42;27.73;;;;;;;16.28;100.00;99964.06;10588108;28;20042;-71
2022/09/06 22:04:26;;;;;;;27.48;26.08;;;;;;;16.14;100.00;99956.91;10587908;28;20058;-72
2022/09/06 22:09:28;;;;;;;27.60;26.00;;;;;;;16.04;100.00;99956.56;10569321;28;20040;-72
2022/09/06 22:14:30;;;;;;;29.52;28.00;;;;;;;16.18;100.00;99955.78;10586764;28;20047;-71
2022/09/06 22:19:31;;;;;;;25.73;24.33;;;;;;;16.09;100.00;99961.59;10585454;28;20035;-71
2022/09/06 22:24:33;;;;;;;28.23;26.60;;;;;;;16.08;100.00;99950.16;10586451;28;20051;-71
2022/09/06 22:29:35;;;;;;;32.53;30.02;;;;;;;16.16;100.00;99955.03;10587074;28;20044;-71
2022/09/06 22:34:36;;;;;;;32.13;30.27;;;;;;;16.19;100.00;99946.03;10568663;28;20523;-71
2022/09/06 22:39:38;;;;;;;32.50;30.70;;;;;;;15.94;100.00;99955.38;10586761;28;20442;-71
2022/09/06 22:44:39;;;;;;;31.45;29.52;;;;;;;15.83;100.00;99955.94;10568136;28;20075;-71
2022/09/06 22:49:41;;;;;;;31.05;29.27;;;;;;;15.77;100.00;99952.78;10585653;28;20047;-73
2022/09/06 22:54:43;;;;;;;26.08;24.65;;;;;;;15.80;100.00;99963.19;10585777;28;20047;-74
2022/09/06 22:59:44;;;;;;;28.45;26.88;;;;;;;15.80;100.00;99968.50;10585613;28;20031;-71
2022/09/06 23:04:46;;;;;;;26.50;25.02;;;;;;;15.71;100.00;99958.41;10585372;28;20048;-71